Portlethen, United Kingdom
Current Conditions -  °F | °C
As of 12:20 AM on Friday 19 Dec 2014 (Local Time) from EGPD Reporting Station
Clear Clear  
Wind Chill: 33°   Ceiling: Unl
Heat Index: 39°   Visibility: 6mi
Dew Point: 32°   Wind: 9mph
Humidity: 75%   Direction: 250°WSW
Pressure: 29.35"   Gusts: NA
Location:  57.05°N, 2.13°W
Report Text: EGPD 190020Z AUTO 25008KT 9999 NCD 04/M00 Q0994
Loading
Personal Weather Stations






























Interactive Weather Map New forecast layout! Learn more

10-Day Weather Forecast

Advertisements
Track Severe Weather on mobile